Accueil
METAR-TAF:

METAR-TAF

Aéroports :

Fritzlar, Allemagne

latitude: 51-07N, longitude: 009-17E, altitude: 172 m

Observation

Le bulletin a été fait il y a 21 minutes, à 03:50 UTC
Vent calme
Température 3°C
Humidité 100%
Pression 1022 hPa
Visibilité: 0300 m
brouillard

METAR: ETHF 280350Z 00000KT 0300 FG VV001 03/03 Q1022 RED

Heure: 06:11 (04:11 UTC)

Prévision

Le bulletin a été fait il y a 14 heures et 51 minutes, à 13:20 UTC
Prévision valable du 27 à 14 UTC au 27 à 23 UTC
Vent 8 kt de sud/sud-ouest
Visibilité 10 km ou plus
Nuages épars à une hauteur de 3000 ft

TAF: ETHF 271320Z 2714/2723 21008KT 9999 NSW SCT030

Observations et prévisions météorologiques de plus de 4000 aéroports (messages METAR et TAF).

Les stations disponibles sont représentées par des disques jaunes et rouges sur la carte.

Passer la souris dessus pour voir le nom de la station.

Cliquer dessus pour voir les observations et prévisions météorologiques.

Pour changer de carte: cliquez sur les boutons verts avec une croix noire pour zoomer, sur le bouton vert avec un tiret pour effectuer un zoom arrière, ou sur les flèches vertes pour les cartes adjacentes.


METAR-TAF: